Osage, Texas
Current Conditions -  °F | °C
As of 11:35 PM on Sunday 21 Dec 2014 (Local Time) from K66R Reporting Station
Overcast Overcast  
Wind Chill: 56°   Ceiling: 600
Heat Index: 56°   Visibility: 10mi
Dew Point: 55°   Wind: 6mph
Humidity: 94%   Direction: 170°S
Pressure: 29.87"   Gusts: NA
Location:  29.6229°N, 96.7031°W
Report Text: K66R 220535Z AUTO 17005KT 10SM OVC006 14/13 A2987 RMK AO2 T01360127
Loading
Personal Weather Stations






























Interactive Weather Map New forecast layout! Learn more

10-Day Weather Forecast

Advertisements
Track Severe Weather on mobile